Wedowee, Alabama
Current Conditions -  °F | °C
As of 3:53 PM on Sunday 23 Nov 2014 (Local Time) from KANB Reporting Station
Few Clouds Few Clouds  
Wind Chill: 58°   Ceiling: Unl
Heat Index: 58°   Visibility: 10mi
Dew Point: 56°   Wind: 3mph
Humidity: 93%   Direction: NA
Pressure: 29.59"   Gusts: NA
Location:  33.31°N, 85.48°W
Report Text: KANB 232153Z AUTO VRB03KT 10SM FEW031 14/13 A2959 RMK AO2 RAE28 SLP021 P0001 T01440133 $
Loading
Personal Weather Stations






























Interactive Weather Map New forecast layout! Learn more

10-Day Weather Forecast

Advertisements
Track Severe Weather on mobile